sensor_id;sensor_type;location;lat;lon;timestamp;temperature;humidity
19348;DHT22;9810;52.480;9.806;2023-02-28T00:00:54;-2.10;99.90
19348;DHT22;9810;52.480;9.806;2023-02-28T00:03:22;-2.30;99.90
19348;DHT22;9810;52.480;9.806;2023-02-28T00:05:49;-2.40;99.90
19348;DHT22;9810;52.480;9.806;2023-02-28T00:08:16;-2.50;99.90
19348;DHT22;9810;52.480;9.806;2023-02-28T00:10:43;-2.50;99.90
19348;DHT22;9810;52.480;9.806;2023-02-28T00:13:11;-2.50;99.90
19348;DHT22;9810;52.480;9.806;2023-02-28T00:15:40;-2.50;99.90
19348;DHT22;9810;52.480;9.806;2023-02-28T00:18:07;-2.60;99.90
19348;DHT22;9810;52.480;9.806;2023-02-28T00:20:34;-2.30;99.90
19348;DHT22;9810;52.480;9.806;2023-02-28T00:23:01;-2.30;99.90
19348;DHT22;9810;52.480;9.806;2023-02-28T00:25:29;-2.50;99.90
19348;DHT22;9810;52.480;9.806;2023-02-28T00:27:56;-2.50;99.90
19348;DHT22;9810;52.480;9.806;2023-02-28T00:30:24;-2.60;99.90
19348;DHT22;9810;52.480;9.806;2023-02-28T00:32:53;-2.70;99.90
19348;DHT22;9810;52.480;9.806;2023-02-28T00:35:20;-2.80;99.90
19348;DHT22;9810;52.480;9.806;2023-02-28T00:37:48;-2.80;99.90
19348;DHT22;9810;52.480;9.806;2023-02-28T00:40:16;-2.80;99.90
19348;DHT22;9810;52.480;9.806;2023-02-28T00:42:43;-2.90;99.90
19348;DHT22;9810;52.480;9.806;2023-02-28T00:45:10;-2.90;99.90
19348;DHT22;9810;52.480;9.806;2023-02-28T00:47:38;-3.00;99.90
19348;DHT22;9810;52.480;9.806;2023-02-28T00:50:09;-3.10;99.90
19348;DHT22;9810;52.480;9.806;2023-02-28T00:52:36;-2.60;99.90
19348;DHT22;9810;52.480;9.806;2023-02-28T00:55:04;-2.50;99.90
19348;DHT22;9810;52.480;9.806;2023-02-28T00:57:32;-2.70;99.90
19348;DHT22;9810;52.480;9.806;2023-02-28T00:59:59;-2.80;99.90
19348;DHT22;9810;52.480;9.806;2023-02-28T01:02:27;-3.00;99.90
19348;DHT22;9810;52.480;9.806;2023-02-28T01:04:54;-2.90;99.90
19348;DHT22;9810;52.480;9.806;2023-02-28T01:07:24;-3.00;99.90
19348;DHT22;9810;52.480;9.806;2023-02-28T01:09:51;-3.10;99.90
19348;DHT22;9810;52.480;9.806;2023-02-28T01:12:18;-3.10;99.90
19348;DHT22;9810;52.480;9.806;2023-02-28T01:14:45;-3.10;99.90
19348;DHT22;9810;52.480;9.806;2023-02-28T01:17:13;-3.00;99.90
19348;DHT22;9810;52.480;9.806;2023-02-28T01:19:40;-3.00;99.90
19348;DHT22;9810;52.480;9.806;2023-02-28T01:22:07;-3.10;99.90
19348;DHT22;9810;52.480;9.806;2023-02-28T01:24:37;-3.00;99.90
19348;DHT22;9810;52.480;9.806;2023-02-28T01:27:04;-3.20;99.90
19348;DHT22;9810;52.480;9.806;2023-02-28T01:29:32;-3.30;99.90
19348;DHT22;9810;52.480;9.806;2023-02-28T01:31:59;-3.40;99.90
19348;DHT22;9810;52.480;9.806;2023-02-28T01:34:26;-3.40;99.90
19348;DHT22;9810;52.480;9.806;2023-02-28T01:36:53;-3.50;99.90
19348;DHT22;9810;52.480;9.806;2023-02-28T01:39:21;-3.10;99.90
19348;DHT22;9810;52.480;9.806;2023-02-28T01:41:50;-2.90;99.90
19348;DHT22;9810;52.480;9.806;2023-02-28T01:44:55;-3.10;99.90
19348;DHT22;9810;52.480;9.806;2023-02-28T01:47:25;-3.40;99.90
19348;DHT22;9810;52.480;9.806;2023-02-28T01:49:53;-3.60;99.90
19348;DHT22;9810;52.480;9.806;2023-02-28T01:52:21;-3.60;99.90
19348;DHT22;9810;52.480;9.806;2023-02-28T01:54:53;-3.70;99.90
19348;DHT22;9810;52.480;9.806;2023-02-28T01:57:26;-3.50;99.90
19348;DHT22;9810;52.480;9.806;2023-02-28T01:59:57;-3.30;99.90
19348;DHT22;9810;52.480;9.806;2023-02-28T02:02:27;-3.30;99.90
19348;DHT22;9810;52.480;9.806;2023-02-28T02:04:58;-3.20;99.90
19348;DHT22;9810;52.480;9.806;2023-02-28T02:07:30;-3.40;99.90
19348;DHT22;9810;52.480;9.806;2023-02-28T02:10:00;-3.50;99.90
19348;DHT22;9810;52.480;9.806;2023-02-28T02:15:25;-3.80;99.90
19348;DHT22;9810;52.480;9.806;2023-02-28T02:17:57;-3.80;99.90
19348;DHT22;9810;52.480;9.806;2023-02-28T02:23:31;-3.50;99.90
19348;DHT22;9810;52.480;9.806;2023-02-28T02:26:10;-3.80;99.90
19348;DHT22;9810;52.480;9.806;2023-02-28T02:29:01;-4.00;99.90
19348;DHT22;9810;52.480;9.806;2023-02-28T02:34:29;-4.10;99.90
19348;DHT22;9810;52.480;9.806;2023-02-28T02:37:06;-4.10;99.90
19348;DHT22;9810;52.480;9.806;2023-02-28T02:39:40;-4.10;99.90
19348;DHT22;9810;52.480;9.806;2023-02-28T02:42:14;-4.20;99.90
19348;DHT22;9810;52.480;9.806;2023-02-28T02:44:47;-4.20;99.90
19348;DHT22;9810;52.480;9.806;2023-02-28T02:47:20;-4.20;99.90
19348;DHT22;9810;52.480;9.806;2023-02-28T02:49:52;-4.20;99.90
19348;DHT22;9810;52.480;9.806;2023-02-28T02:52:24;-4.10;99.90
19348;DHT22;9810;52.480;9.806;2023-02-28T02:54:54;-4.10;99.90
19348;DHT22;9810;52.480;9.806;2023-02-28T02:57:26;-4.20;99.90
19348;DHT22;9810;52.480;9.806;2023-02-28T02:59:56;-4.10;99.90
19348;DHT22;9810;52.480;9.806;2023-02-28T03:02:24;-3.80;99.90
19348;DHT22;9810;52.480;9.806;2023-02-28T03:04:59;-4.00;99.90
19348;DHT22;9810;52.480;9.806;2023-02-28T03:07:28;-4.30;99.90
19348;DHT22;9810;52.480;9.806;2023-02-28T03:09:56;-4.50;99.90
19348;DHT22;9810;52.480;9.806;2023-02-28T03:12:27;-4.40;99.90
19348;DHT22;9810;52.480;9.806;2023-02-28T03:15:06;-4.30;99.90
19348;DHT22;9810;52.480;9.806;2023-02-28T03:17:52;-4.00;99.90
19348;DHT22;9810;52.480;9.806;2023-02-28T03:20:32;-3.90;99.90
19348;DHT22;9810;52.480;9.806;2023-02-28T03:23:10;-4.30;99.90
19348;DHT22;9810;52.480;9.806;2023-02-28T03:25:56;-4.50;99.90
19348;DHT22;9810;52.480;9.806;2023-02-28T03:28:31;-4.50;99.90
19348;DHT22;9810;52.480;9.806;2023-02-28T03:31:02;-4.40;99.90
19348;DHT22;9810;52.480;9.806;2023-02-28T03:33:34;-4.30;99.90
19348;DHT22;9810;52.480;9.806;2023-02-28T03:36:08;-4.10;99.90
19348;DHT22;9810;52.480;9.806;2023-02-28T03:38:41;-4.10;99.90
19348;DHT22;9810;52.480;9.806;2023-02-28T03:41:14;-4.20;99.90
19348;DHT22;9810;52.480;9.806;2023-02-28T03:43:48;-4.30;99.90
19348;DHT22;9810;52.480;9.806;2023-02-28T03:46:21;-4.50;99.90
19348;DHT22;9810;52.480;9.806;2023-02-28T03:48:54;-4.60;99.90
19348;DHT22;9810;52.480;9.806;2023-02-28T03:51:26;-4.80;99.90
19348;DHT22;9810;52.480;9.806;2023-02-28T03:53:57;-4.80;99.90
19348;DHT22;9810;52.480;9.806;2023-02-28T03:56:30;-4.80;99.90
19348;DHT22;9810;52.480;9.806;2023-02-28T03:59:01;-4.70;99.90
19348;DHT22;9810;52.480;9.806;2023-02-28T04:01:35;-4.80;99.90
19348;DHT22;9810;52.480;9.806;2023-02-28T04:04:03;-4.70;99.90
19348;DHT22;9810;52.480;9.806;2023-02-28T04:06:33;-4.80;99.90
19348;DHT22;9810;52.480;9.806;2023-02-28T04:09:01;-4.90;99.90
19348;DHT22;9810;52.480;9.806;2023-02-28T04:11:33;-4.90;99.90
19348;DHT22;9810;52.480;9.806;2023-02-28T04:14:01;-4.80;99.90
19348;DHT22;9810;52.480;9.806;2023-02-28T04:16:30;-4.90;99.90
19348;DHT22;9810;52.480;9.806;2023-02-28T04:18:57;-5.00;99.90
19348;DHT22;9810;52.480;9.806;2023-02-28T04:21:29;-4.90;99.90
19348;DHT22;9810;52.480;9.806;2023-02-28T04:24:00;-5.00;99.90
19348;DHT22;9810;52.480;9.806;2023-02-28T04:26:29;-5.00;99.90
19348;DHT22;9810;52.480;9.806;2023-02-28T04:28:56;-5.00;99.90
19348;DHT22;9810;52.480;9.806;2023-02-28T04:31:25;-5.10;99.90
19348;DHT22;9810;52.480;9.806;2023-02-28T04:33:53;-5.20;99.90
19348;DHT22;9810;52.480;9.806;2023-02-28T04:36:20;-5.20;99.90
19348;DHT22;9810;52.480;9.806;2023-02-28T04:38:50;-5.20;99.90
19348;DHT22;9810;52.480;9.806;2023-02-28T04:41:19;-5.20;99.90
19348;DHT22;9810;52.480;9.806;2023-02-28T04:43:47;-5.00;99.90
19348;DHT22;9810;52.480;9.806;2023-02-28T04:46:14;-5.20;99.90
19348;DHT22;9810;52.480;9.806;2023-02-28T04:48:42;-5.20;99.90
19348;DHT22;9810;52.480;9.806;2023-02-28T04:51:11;-5.20;99.90
19348;DHT22;9810;52.480;9.806;2023-02-28T04:53:41;-5.20;99.90
19348;DHT22;9810;52.480;9.806;2023-02-28T04:56:12;-5.20;99.90
19348;DHT22;9810;52.480;9.806;2023-02-28T04:58:41;-5.20;99.90
19348;DHT22;9810;52.480;9.806;2023-02-28T05:01:20;-5.30;99.90
19348;DHT22;9810;52.480;9.806;2023-02-28T05:03:48;-5.20;99.90
19348;DHT22;9810;52.480;9.806;2023-02-28T05:06:16;-5.20;99.90
19348;DHT22;9810;52.480;9.806;2023-02-28T05:08:44;-5.40;99.90
19348;DHT22;9810;52.480;9.806;2023-02-28T05:11:17;-5.20;99.90
19348;DHT22;9810;52.480;9.806;2023-02-28T05:13:46;-5.20;99.90
19348;DHT22;9810;52.480;9.806;2023-02-28T05:16:14;-5.20;99.90
19348;DHT22;9810;52.480;9.806;2023-02-28T05:18:42;-5.30;99.90
19348;DHT22;9810;52.480;9.806;2023-02-28T05:21:27;-5.30;99.90
19348;DHT22;9810;52.480;9.806;2023-02-28T05:23:55;-5.30;99.90
19348;DHT22;9810;52.480;9.806;2023-02-28T05:26:24;-5.20;99.90
19348;DHT22;9810;52.480;9.806;2023-02-28T05:28:53;-5.20;99.90
19348;DHT22;9810;52.480;9.806;2023-02-28T05:31:20;-5.20;99.90
19348;DHT22;9810;52.480;9.806;2023-02-28T05:33:47;-5.10;99.90
19348;DHT22;9810;52.480;9.806;2023-02-28T05:36:15;-5.10;99.90
19348;DHT22;9810;52.480;9.806;2023-02-28T05:38:42;-5.20;99.90
19348;DHT22;9810;52.480;9.806;2023-02-28T05:41:10;-5.20;99.90
19348;DHT22;9810;52.480;9.806;2023-02-28T05:43:37;-5.20;99.90
19348;DHT22;9810;52.480;9.806;2023-02-28T05:46:09;-5.30;99.90
19348;DHT22;9810;52.480;9.806;2023-02-28T05:48:38;-5.20;99.90
19348;DHT22;9810;52.480;9.806;2023-02-28T05:51:07;-5.20;99.90
19348;DHT22;9810;52.480;9.806;2023-02-28T05:53:35;-5.00;99.90
19348;DHT22;9810;52.480;9.806;2023-02-28T05:56:03;-5.00;99.90
19348;DHT22;9810;52.480;9.806;2023-02-28T05:58:31;-5.20;99.90
19348;DHT22;9810;52.480;9.806;2023-02-28T06:00:59;-5.10;99.90
19348;DHT22;9810;52.480;9.806;2023-02-28T06:03:28;-5.20;99.90
19348;DHT22;9810;52.480;9.806;2023-02-28T06:05:56;-5.00;99.90
19348;DHT22;9810;52.480;9.806;2023-02-28T06:08:23;-5.00;99.90
19348;DHT22;9810;52.480;9.806;2023-02-28T06:10:51;-4.90;99.90
19348;DHT22;9810;52.480;9.806;2023-02-28T06:13:18;-5.00;99.90
19348;DHT22;9810;52.480;9.806;2023-02-28T06:15:45;-4.90;99.90
19348;DHT22;9810;52.480;9.806;2023-02-28T06:18:13;-4.70;99.90
19348;DHT22;9810;52.480;9.806;2023-02-28T06:20:42;-4.70;99.90
19348;DHT22;9810;52.480;9.806;2023-02-28T06:23:13;-5.10;99.90
19348;DHT22;9810;52.480;9.806;2023-02-28T06:25:40;-5.20;99.90
19348;DHT22;9810;52.480;9.806;2023-02-28T06:28:11;-5.30;99.90
19348;DHT22;9810;52.480;9.806;2023-02-28T06:30:38;-5.00;99.90
19348;DHT22;9810;52.480;9.806;2023-02-28T06:33:06;-4.90;99.90
19348;DHT22;9810;52.480;9.806;2023-02-28T06:35:33;-5.10;99.90
19348;DHT22;9810;52.480;9.806;2023-02-28T06:38:02;-5.30;99.90
19348;DHT22;9810;52.480;9.806;2023-02-28T06:40:31;-5.30;99.90
19348;DHT22;9810;52.480;9.806;2023-02-28T06:43:00;-4.80;99.90
19348;DHT22;9810;52.480;9.806;2023-02-28T06:45:27;-4.60;99.90
19348;DHT22;9810;52.480;9.806;2023-02-28T06:47:55;-4.80;99.90
19348;DHT22;9810;52.480;9.806;2023-02-28T06:50:23;-4.90;99.90
19348;DHT22;9810;52.480;9.806;2023-02-28T06:52:50;-4.60;99.90
19348;DHT22;9810;52.480;9.806;2023-02-28T06:55:22;-4.30;99.90
19348;DHT22;9810;52.480;9.806;2023-02-28T06:57:50;-4.50;99.90
19348;DHT22;9810;52.480;9.806;2023-02-28T07:00:18;-4.60;99.90
19348;DHT22;9810;52.480;9.806;2023-02-28T07:02:45;-4.50;99.90
19348;DHT22;9810;52.480;9.806;2023-02-28T07:05:13;-4.50;99.90
19348;DHT22;9810;52.480;9.806;2023-02-28T07:07:40;-4.40;99.90
19348;DHT22;9810;52.480;9.806;2023-02-28T07:10:11;-4.40;99.90
19348;DHT22;9810;52.480;9.806;2023-02-28T07:12:40;-4.40;99.90
19348;DHT22;9810;52.480;9.806;2023-02-28T07:15:08;-4.30;99.90
19348;DHT22;9810;52.480;9.806;2023-02-28T07:17:36;-4.20;99.90
19348;DHT22;9810;52.480;9.806;2023-02-28T07:20:04;-4.00;99.90
19348;DHT22;9810;52.480;9.806;2023-02-28T07:22:31;-3.70;99.90
19348;DHT22;9810;52.480;9.806;2023-02-28T07:24:58;-3.60;99.90
19348;DHT22;9810;52.480;9.806;2023-02-28T07:27:26;-3.50;99.90
19348;DHT22;9810;52.480;9.806;2023-02-28T07:29:55;-3.30;99.90
19348;DHT22;9810;52.480;9.806;2023-02-28T07:32:22;-3.20;99.90
19348;DHT22;9810;52.480;9.806;2023-02-28T07:34:49;-3.00;99.90
19348;DHT22;9810;52.480;9.806;2023-02-28T07:37:17;-2.70;99.90
19348;DHT22;9810;52.480;9.806;2023-02-28T07:39:44;-2.30;99.90
19348;DHT22;9810;52.480;9.806;2023-02-28T07:42:12;-1.30;99.90
19348;DHT22;9810;52.480;9.806;2023-02-28T07:44:39;0.80;99.90
19348;DHT22;9810;52.480;9.806;2023-02-28T07:47:10;2.70;99.90
19348;DHT22;9810;52.480;9.806;2023-02-28T07:49:37;3.70;99.90
19348;DHT22;9810;52.480;9.806;2023-02-28T07:52:06;4.70;99.90
19348;DHT22;9810;52.480;9.806;2023-02-28T07:54:34;4.70;99.90
19348;DHT22;9810;52.480;9.806;2023-02-28T07:57:01;6.10;99.90
19348;DHT22;9810;52.480;9.806;2023-02-28T07:59:32;7.40;99.90
19348;DHT22;9810;52.480;9.806;2023-02-28T08:01:59;5.40;99.90
19348;DHT22;9810;52.480;9.806;2023-02-28T08:04:31;4.10;99.90
19348;DHT22;9810;52.480;9.806;2023-02-28T08:06:59;5.10;99.90
19348;DHT22;9810;52.480;9.806;2023-02-28T08:09:28;5.10;99.90
19348;DHT22;9810;52.480;9.806;2023-02-28T08:11:56;4.30;99.90
19348;DHT22;9810;52.480;9.806;2023-02-28T08:14:23;4.00;99.90
19348;DHT22;9810;52.480;9.806;2023-02-28T08:16:51;3.90;99.90
19348;DHT22;9810;52.480;9.806;2023-02-28T08:19:18;4.90;99.90
19348;DHT22;9810;52.480;9.806;2023-02-28T08:21:47;4.00;99.90
19348;DHT22;9810;52.480;9.806;2023-02-28T08:24:14;4.60;99.90
19348;DHT22;9810;52.480;9.806;2023-02-28T08:26:41;5.30;99.90
19348;DHT22;9810;52.480;9.806;2023-02-28T08:29:09;6.00;99.90
19348;DHT22;9810;52.480;9.806;2023-02-28T08:31:36;5.60;99.90
19348;DHT22;9810;52.480;9.806;2023-02-28T08:34:05;5.80;99.90
19348;DHT22;9810;52.480;9.806;2023-02-28T08:36:33;5.80;99.90
19348;DHT22;9810;52.480;9.806;2023-02-28T08:39:03;6.90;99.90
19348;DHT22;9810;52.480;9.806;2023-02-28T08:41:30;4.90;99.90
19348;DHT22;9810;52.480;9.806;2023-02-28T08:43:58;5.40;99.90
19348;DHT22;9810;52.480;9.806;2023-02-28T08:46:25;6.90;99.90
19348;DHT22;9810;52.480;9.806;2023-02-28T08:48:54;8.80;99.90
19348;DHT22;9810;52.480;9.806;2023-02-28T08:51:22;6.00;99.90
19348;DHT22;9810;52.480;9.806;2023-02-28T08:53:52;8.90;99.90
19348;DHT22;9810;52.480;9.806;2023-02-28T08:56:21;8.40;99.90
19348;DHT22;9810;52.480;9.806;2023-02-28T08:58:49;8.90;99.90
19348;DHT22;9810;52.480;9.806;2023-02-28T09:01:18;10.70;99.90
19348;DHT22;9810;52.480;9.806;2023-02-28T09:03:48;8.90;99.90
19348;DHT22;9810;52.480;9.806;2023-02-28T09:06:17;9.40;99.90
19348;DHT22;9810;52.480;9.806;2023-02-28T09:08:45;11.10;99.90
19348;DHT22;9810;52.480;9.806;2023-02-28T09:11:13;9.40;99.90
19348;DHT22;9810;52.480;9.806;2023-02-28T09:13:42;10.60;99.90
19348;DHT22;9810;52.480;9.806;2023-02-28T09:16:11;8.80;99.90
19348;DHT22;9810;52.480;9.806;2023-02-28T09:18:39;9.90;99.90
19348;DHT22;9810;52.480;9.806;2023-02-28T09:21:09;10.50;99.90
19348;DHT22;9810;52.480;9.806;2023-02-28T09:23:39;11.80;99.90
19348;DHT22;9810;52.480;9.806;2023-02-28T09:26:06;11.60;99.90
19348;DHT22;9810;52.480;9.806;2023-02-28T09:28:34;10.70;99.90
19348;DHT22;9810;52.480;9.806;2023-02-28T09:31:03;10.70;99.90
19348;DHT22;9810;52.480;9.806;2023-02-28T09:33:30;10.80;99.90
19348;DHT22;9810;52.480;9.806;2023-02-28T09:36:00;12.40;99.90
19348;DHT22;9810;52.480;9.806;2023-02-28T09:38:28;13.00;99.90
19348;DHT22;9810;52.480;9.806;2023-02-28T09:40:57;10.90;99.90
19348;DHT22;9810;52.480;9.806;2023-02-28T09:43:26;11.10;99.90
19348;DHT22;9810;52.480;9.806;2023-02-28T09:45:59;12.40;99.90
19348;DHT22;9810;52.480;9.806;2023-02-28T09:48:33;11.70;99.90
19348;DHT22;9810;52.480;9.806;2023-02-28T09:51:04;11.30;99.90
19348;DHT22;9810;52.480;9.806;2023-02-28T09:53:35;11.50;99.90
19348;DHT22;9810;52.480;9.806;2023-02-28T09:56:08;10.60;99.90
19348;DHT22;9810;52.480;9.806;2023-02-28T09:58:41;12.40;99.90
19348;DHT22;9810;52.480;9.806;2023-02-28T10:01:18;13.10;99.90
19348;DHT22;9810;52.480;9.806;2023-02-28T10:03:55;10.90;99.90
19348;DHT22;9810;52.480;9.806;2023-02-28T10:06:28;10.90;99.90
19348;DHT22;9810;52.480;9.806;2023-02-28T10:09:01;9.50;99.90
19348;DHT22;9810;52.480;9.806;2023-02-28T10:11:30;9.10;99.90
19348;DHT22;9810;52.480;9.806;2023-02-28T10:14:01;10.80;99.90
19348;DHT22;9810;52.480;9.806;2023-02-28T10:16:34;10.90;99.90
19348;DHT22;9810;52.480;9.806;2023-02-28T10:19:06;9.40;99.90
19348;DHT22;9810;52.480;9.806;2023-02-28T10:21:39;9.20;99.90
19348;DHT22;9810;52.480;9.806;2023-02-28T10:24:19;8.10;99.90
19348;DHT22;9810;52.480;9.806;2023-02-28T10:26:48;10.20;99.90
19348;DHT22;9810;52.480;9.806;2023-02-28T10:29:16;11.50;99.90
19348;DHT22;9810;52.480;9.806;2023-02-28T10:31:44;10.20;99.90
19348;DHT22;9810;52.480;9.806;2023-02-28T10:34:13;9.10;99.90
19348;DHT22;9810;52.480;9.806;2023-02-28T10:36:41;10.40;99.90
19348;DHT22;9810;52.480;9.806;2023-02-28T10:39:35;11.40;99.90
19348;DHT22;9810;52.480;9.806;2023-02-28T10:42:03;9.50;99.90
19348;DHT22;9810;52.480;9.806;2023-02-28T10:44:32;10.00;99.90
19348;DHT22;9810;52.480;9.806;2023-02-28T10:46:59;9.80;99.90
19348;DHT22;9810;52.480;9.806;2023-02-28T10:49:32;9.50;99.90
19348;DHT22;9810;52.480;9.806;2023-02-28T10:52:03;10.20;99.90
19348;DHT22;9810;52.480;9.806;2023-02-28T10:54:33;10.60;99.90
19348;DHT22;9810;52.480;9.806;2023-02-28T10:57:12;10.80;99.90
19348;DHT22;9810;52.480;9.806;2023-02-28T10:59:41;11.50;99.90
19348;DHT22;9810;52.480;9.806;2023-02-28T11:02:29;11.30;99.90
19348;DHT22;9810;52.480;9.806;2023-02-28T11:04:58;10.10;99.90
19348;DHT22;9810;52.480;9.806;2023-02-28T11:07:27;8.50;99.90
19348;DHT22;9810;52.480;9.806;2023-02-28T11:09:57;8.00;99.90
19348;DHT22;9810;52.480;9.806;2023-02-28T11:12:27;7.70;99.90
19348;DHT22;9810;52.480;9.806;2023-02-28T11:14:57;8.30;99.90
19348;DHT22;9810;52.480;9.806;2023-02-28T11:17:29;9.10;99.90
19348;DHT22;9810;52.480;9.806;2023-02-28T11:20:02;9.70;99.90
19348;DHT22;9810;52.480;9.806;2023-02-28T11:22:35;8.00;99.90
19348;DHT22;9810;52.480;9.806;2023-02-28T11:25:08;9.10;99.90
19348;DHT22;9810;52.480;9.806;2023-02-28T11:27:44;8.70;99.90
19348;DHT22;9810;52.480;9.806;2023-02-28T11:30:28;8.70;99.90
19348;DHT22;9810;52.480;9.806;2023-02-28T11:32:56;9.80;99.90
19348;DHT22;9810;52.480;9.806;2023-02-28T11:35:28;9.50;99.90
19348;DHT22;9810;52.480;9.806;2023-02-28T11:37:58;10.00;99.90
19348;DHT22;9810;52.480;9.806;2023-02-28T11:40:31;9.70;99.90
19348;DHT22;9810;52.480;9.806;2023-02-28T11:43:09;8.90;99.90
19348;DHT22;9810;52.480;9.806;2023-02-28T11:45:49;7.90;99.90
19348;DHT22;9810;52.480;9.806;2023-02-28T11:48:22;7.60;99.90
19348;DHT22;9810;52.480;9.806;2023-02-28T11:51:00;7.70;99.90
19348;DHT22;9810;52.480;9.806;2023-02-28T11:53:52;7.50;99.90
19348;DHT22;9810;52.480;9.806;2023-02-28T11:56:26;8.60;99.90
19348;DHT22;9810;52.480;9.806;2023-02-28T11:59:12;9.20;99.90
19348;DHT22;9810;52.480;9.806;2023-02-28T12:01:54;9.80;99.90
19348;DHT22;9810;52.480;9.806;2023-02-28T12:04:34;9.60;99.90
19348;DHT22;9810;52.480;9.806;2023-02-28T12:07:16;8.90;99.90
19348;DHT22;9810;52.480;9.806;2023-02-28T12:09:53;8.30;99.90
19348;DHT22;9810;52.480;9.806;2023-02-28T12:12:35;8.20;99.90
19348;DHT22;9810;52.480;9.806;2023-02-28T12:15:25;7.90;99.90
19348;DHT22;9810;52.480;9.806;2023-02-28T12:18:04;8.20;99.90
19348;DHT22;9810;52.480;9.806;2023-02-28T12:20:36;8.10;99.90
19348;DHT22;9810;52.480;9.806;2023-02-28T12:23:23;7.40;99.90
19348;DHT22;9810;52.480;9.806;2023-02-28T12:26:00;7.30;99.90
19348;DHT22;9810;52.480;9.806;2023-02-28T12:28:33;7.10;99.90
19348;DHT22;9810;52.480;9.806;2023-02-28T12:31:04;6.50;99.90
19348;DHT22;9810;52.480;9.806;2023-02-28T12:33:36;6.40;99.90
19348;DHT22;9810;52.480;9.806;2023-02-28T12:36:10;6.40;99.90
19348;DHT22;9810;52.480;9.806;2023-02-28T12:38:42;6.70;99.90
19348;DHT22;9810;52.480;9.806;2023-02-28T12:41:12;6.80;99.90
19348;DHT22;9810;52.480;9.806;2023-02-28T12:43:44;6.70;99.90
19348;DHT22;9810;52.480;9.806;2023-02-28T12:46:17;6.50;99.90
19348;DHT22;9810;52.480;9.806;2023-02-28T12:48:51;6.60;99.90
19348;DHT22;9810;52.480;9.806;2023-02-28T12:51:21;6.70;99.90
19348;DHT22;9810;52.480;9.806;2023-02-28T12:53:59;6.80;99.90
19348;DHT22;9810;52.480;9.806;2023-02-28T12:56:34;6.50;99.90
19348;DHT22;9810;52.480;9.806;2023-02-28T12:59:07;6.60;99.90
19348;DHT22;9810;52.480;9.806;2023-02-28T13:02:01;6.60;99.90
19348;DHT22;9810;52.480;9.806;2023-02-28T13:04:47;6.50;99.90
19348;DHT22;9810;52.480;9.806;2023-02-28T13:10:20;6.50;99.90
19348;DHT22;9810;52.480;9.806;2023-02-28T13:12:49;6.30;99.90
19348;DHT22;9810;52.480;9.806;2023-02-28T13:15:20;6.10;99.90
19348;DHT22;9810;52.480;9.806;2023-02-28T13:17:53;6.20;99.90
19348;DHT22;9810;52.480;9.806;2023-02-28T13:20:23;6.30;99.90
19348;DHT22;9810;52.480;9.806;2023-02-28T13:22:53;6.40;99.90
19348;DHT22;9810;52.480;9.806;2023-02-28T13:25:52;6.40;99.90
19348;DHT22;9810;52.480;9.806;2023-02-28T13:34:34;5.90;99.90
19348;DHT22;9810;52.480;9.806;2023-02-28T13:37:33;6.10;99.90
19348;DHT22;9810;52.480;9.806;2023-02-28T13:42:51;6.30;99.90
19348;DHT22;9810;52.480;9.806;2023-02-28T13:45:24;6.10;99.90
19348;DHT22;9810;52.480;9.806;2023-02-28T13:47:57;5.90;99.90
19348;DHT22;9810;52.480;9.806;2023-02-28T13:50:33;6.10;99.90
19348;DHT22;9810;52.480;9.806;2023-02-28T13:53:24;6.10;99.90
19348;DHT22;9810;52.480;9.806;2023-02-28T13:55:58;6.00;99.90
19348;DHT22;9810;52.480;9.806;2023-02-28T13:58:46;6.00;99.90
19348;DHT22;9810;52.480;9.806;2023-02-28T14:01:28;6.40;99.90
19348;DHT22;9810;52.480;9.806;2023-02-28T14:06:54;6.10;99.90
19348;DHT22;9810;52.480;9.806;2023-02-28T14:09:25;6.20;99.90
19348;DHT22;9810;52.480;9.806;2023-02-28T14:11:53;5.90;99.90
19348;DHT22;9810;52.480;9.806;2023-02-28T14:14:56;5.90;99.90
19348;DHT22;9810;52.480;9.806;2023-02-28T14:17:24;5.90;99.90
19348;DHT22;9810;52.480;9.806;2023-02-28T14:19:52;6.20;99.90
19348;DHT22;9810;52.480;9.806;2023-02-28T14:22:41;6.40;99.90
19348;DHT22;9810;52.480;9.806;2023-02-28T14:25:20;6.50;99.90
19348;DHT22;9810;52.480;9.806;2023-02-28T14:28:01;6.00;99.90
19348;DHT22;9810;52.480;9.806;2023-02-28T14:30:53;6.00;99.90
19348;DHT22;9810;52.480;9.806;2023-02-28T14:33:27;6.20;99.90
19348;DHT22;9810;52.480;9.806;2023-02-28T14:36:07;6.40;99.90
19348;DHT22;9810;52.480;9.806;2023-02-28T14:38:40;6.40;99.90
19348;DHT22;9810;52.480;9.806;2023-02-28T14:41:17;6.20;99.90
19348;DHT22;9810;52.480;9.806;2023-02-28T14:43:55;6.10;99.90
19348;DHT22;9810;52.480;9.806;2023-02-28T14:46:30;6.10;99.90
19348;DHT22;9810;52.480;9.806;2023-02-28T14:49:01;6.10;99.90
19348;DHT22;9810;52.480;9.806;2023-02-28T14:51:32;6.00;99.90
19348;DHT22;9810;52.480;9.806;2023-02-28T14:54:02;6.10;99.90
19348;DHT22;9810;52.480;9.806;2023-02-28T14:56:35;6.00;99.90
19348;DHT22;9810;52.480;9.806;2023-02-28T14:59:06;6.20;99.90
19348;DHT22;9810;52.480;9.806;2023-02-28T15:01:49;6.30;99.90
19348;DHT22;9810;52.480;9.806;2023-02-28T15:04:22;6.20;99.90
19348;DHT22;9810;52.480;9.806;2023-02-28T15:07:09;6.40;99.90
19348;DHT22;9810;52.480;9.806;2023-02-28T15:09:36;6.20;99.90
19348;DHT22;9810;52.480;9.806;2023-02-28T15:12:04;6.20;99.90
19348;DHT22;9810;52.480;9.806;2023-02-28T15:14:31;6.30;99.90
19348;DHT22;9810;52.480;9.806;2023-02-28T15:17:05;6.30;99.90
19348;DHT22;9810;52.480;9.806;2023-02-28T15:19:35;6.30;99.90
19348;DHT22;9810;52.480;9.806;2023-02-28T15:22:06;6.10;99.90
19348;DHT22;9810;52.480;9.806;2023-02-28T15:24:37;6.20;99.90
19348;DHT22;9810;52.480;9.806;2023-02-28T15:27:07;6.40;99.90
19348;DHT22;9810;52.480;9.806;2023-02-28T15:29:44;6.40;99.90
19348;DHT22;9810;52.480;9.806;2023-02-28T15:32:26;6.20;99.90
19348;DHT22;9810;52.480;9.806;2023-02-28T15:34:54;6.00;99.90
19348;DHT22;9810;52.480;9.806;2023-02-28T15:37:32;6.20;99.90
19348;DHT22;9810;52.480;9.806;2023-02-28T15:40:10;6.20;99.90
19348;DHT22;9810;52.480;9.806;2023-02-28T15:42:38;6.00;99.90
19348;DHT22;9810;52.480;9.806;2023-02-28T15:45:27;6.10;99.90
19348;DHT22;9810;52.480;9.806;2023-02-28T15:47:58;6.10;99.90
19348;DHT22;9810;52.480;9.806;2023-02-28T15:50:28;6.10;99.90
19348;DHT22;9810;52.480;9.806;2023-02-28T15:52:56;5.90;99.90
19348;DHT22;9810;52.480;9.806;2023-02-28T15:55:27;6.00;99.90
19348;DHT22;9810;52.480;9.806;2023-02-28T15:57:57;6.00;99.90
19348;DHT22;9810;52.480;9.806;2023-02-28T16:00:29;5.90;99.90
19348;DHT22;9810;52.480;9.806;2023-02-28T16:02:59;5.70;99.90
19348;DHT22;9810;52.480;9.806;2023-02-28T16:05:27;5.60;99.90
19348;DHT22;9810;52.480;9.806;2023-02-28T16:07:58;5.80;99.90
19348;DHT22;9810;52.480;9.806;2023-02-28T16:10:28;5.70;99.90
19348;DHT22;9810;52.480;9.806;2023-02-28T16:12:57;5.70;99.90
19348;DHT22;9810;52.480;9.806;2023-02-28T16:15:25;5.40;99.90
19348;DHT22;9810;52.480;9.806;2023-02-28T16:17:55;5.10;99.90
19348;DHT22;9810;52.480;9.806;2023-02-28T16:20:26;5.00;99.90
19348;DHT22;9810;52.480;9.806;2023-02-28T16:22:54;4.80;99.90
19348;DHT22;9810;52.480;9.806;2023-02-28T16:25:26;4.70;99.90
19348;DHT22;9810;52.480;9.806;2023-02-28T16:27:55;4.70;99.90
19348;DHT22;9810;52.480;9.806;2023-02-28T16:30:27;4.60;99.90
19348;DHT22;9810;52.480;9.806;2023-02-28T16:32:57;4.60;99.90
19348;DHT22;9810;52.480;9.806;2023-02-28T16:35:26;4.50;99.90
19348;DHT22;9810;52.480;9.806;2023-02-28T16:37:54;4.40;99.90
19348;DHT22;9810;52.480;9.806;2023-02-28T16:40:23;4.40;99.90
19348;DHT22;9810;52.480;9.806;2023-02-28T16:42:53;4.70;99.90